• Join FlightAware (Why Join?)
  • Login
  • US Flag 
11:50PM EDT


 

Airport Tracker/Info


-or-


 

Live Flight TrackerFlight Track Log ✈ N64DC ✈ 05-Nov-2010 ✈ KPTK - CYWG

Flight Track Log - Related Links

Times and Time Zones

All times are in EDT time to prevent confusion due to time zone crossing. See the N64DC flight status page for this flight to view local times or setup timezone preferences in your user account.

Time Position Orientation Groundspeed Altitude Reporting Facility
EDT Latitude Longitude Course Direction KTS MPH feet Rate Location/Type
09:05AM 42.6639 -83.4531 302° West 136 157 1,700  Level DTW
09:06AM 42.6858 -83.5017 20° North 138 159 4,200 1,740 Climbing DTW
09:08AM 42.7417 -83.4733 26° Northeast 138 159 7,000 1,680 Climbing DTW
09:10AM 42.8064 -83.4297 23° Northeast 152 175 9,900 1,200 Climbing DTW
09:11AM 42.8836 -83.3856 25° Northeast 201 231 11,100 480 Climbing DTW
09:12AM 42.9164 -83.3644 327° Northwest 188 216 11,100 600 Level Cleveland Center
09:13AM 42.9633 -83.4061 308° West 177 204 12,200 1,140 Climbing Cleveland Center
09:14AM 42.9953 -83.4617 307° West 177 204 13,400 1,200 Climbing Cleveland Center
09:15AM 43.0292 -83.5228 315° West 194 223 14,600 1,200 Climbing Cleveland Center
09:16AM 43.0675 -83.5758 308° West 199 229 15,800 1,080 Climbing Cleveland Center
09:17AM 43.1014 -83.6342 311° West 204 235 16,800 1,020 Climbing Cleveland Center
09:18AM 43.1394 -83.6931 309° West 209 241 17,900 1,020 Climbing Cleveland Center
09:19AM 43.1772 -83.7575 311° West 209 241 18,900 900 Climbing Cleveland Center
09:20AM 43.2153 -83.8167 309° West 209 241 19,800 540 Climbing Cleveland Center
09:21AM 43.2531 -83.8811 311° West 209 241 20,000  Climbing Cleveland Center
09:22AM 43.2969 -83.9492 313° West 222 255 19,900  Descending Cleveland Center
09:23AM 43.3428 -84.0175 312° West 227 261 20,000  Climbing Cleveland Center
09:24AM 43.3886 -84.0886 310° West 237 273 20,000  Level Cleveland Center
09:25AM 43.4322 -84.1597 312° West 237 273 20,000  Level Cleveland Center
09:26AM 43.4761 -84.2281 312° West 237 273 20,000  Level Cleveland Center
09:28AM 43.5517 -84.3456 309° West 248 285 20,000  Level Minneapolis Center
09:29AM 43.5903 -84.4114 310° West 243 280 20,000  Level Minneapolis Center
09:30AM 43.6336 -84.4825 309° West 243 280 20,000  Level Minneapolis Center
09:31AM 43.6750 -84.5539 313° West 243 280 20,000  Level Minneapolis Center
09:32AM 43.7225 -84.6244 309° West 243 280 20,000  Level Minneapolis Center
09:33AM 43.7636 -84.6958 309° West 243 280 20,000  Level Minneapolis Center
09:34AM 43.8069 -84.7700 312° West 243 280 20,000  Level Minneapolis Center
09:35AM 43.8497 -84.8358 308° West 243 280 20,000  Level Minneapolis Center
09:36AM 43.8908 -84.9078 311° West 243 280 20,000  Level Minneapolis Center
09:37AM 43.9336 -84.9767 311° West 243 280 20,000  Level Minneapolis Center
09:38AM 43.9764 -85.0456 309° West 243 280 20,000  Level Minneapolis Center
09:39AM 44.0219 -85.1231 307° West 243 280 20,000  Level Minneapolis Center
09:40AM 44.0581 -85.1903 311° West 237 273 20,000  Level Minneapolis Center
09:41AM 44.1008 -85.2594 313° West 237 273 20,000  Level Minneapolis Center
09:42AM 44.1453 -85.3256 308° West 237 273 20,000  Level Minneapolis Center
09:43AM 44.1861 -85.3981 309° West 237 273 20,000  Level Minneapolis Center
09:44AM 44.2289 -85.4706 312° West 237 273 20,000  Level Minneapolis Center
09:45AM 44.2714 -85.5375 309° West 237 273 20,000  Level Minneapolis Center
09:46AM 44.3117 -85.6075 309° West 237 273 20,000  Level Minneapolis Center
09:47AM 44.3544 -85.6803 309° West 237 273 20,000  Level Minneapolis Center
09:48AM 44.3947 -85.7506 309° West 231 266 20,000  Level Minneapolis Center
09:49AM 44.4350 -85.8208 311° West 231 266 20,000  Level Minneapolis Center
09:50AM 44.4772 -85.8881 309° West 231 266 20,000  Level Minneapolis Center
09:51AM 44.5175 -85.9586 309° West 231 266 20,000  Level Minneapolis Center
09:52AM 44.5575 -86.0292 310° West 231 266 20,000  Level Minneapolis Center
09:53AM 44.5997 -86.0997 309° West 231 266 20,000  Level Minneapolis Center
09:54AM 44.6400 -86.1706 305° West 231 266 20,000  Level Minneapolis Center
09:55AM 44.6783 -86.2478 311° West 231 266 20,000  Level Minneapolis Center
09:56AM 44.7203 -86.3156 308° West 236 272 20,000  Level Minneapolis Center
09:57AM 44.7603 -86.3867 306° West 231 266 20,000  Level Minneapolis Center
09:58AM 44.8006 -86.4639 307° West 231 266 20,000  Level Minneapolis Center
09:59AM 44.8383 -86.5356 308° West 231 266 20,000  Level Minneapolis Center
10:00AM 44.8781 -86.6069 308° West 231 266 20,000  Level Minneapolis Center
10:01AM 44.9156 -86.6758 310° West 231 266 20,000  Level Minneapolis Center
10:02AM 44.9597 -86.7497 312° West 231 266 20,000  Level Minneapolis Center
10:03AM 44.9967 -86.8072 310° West 226 260 20,000  Level Minneapolis Center
10:04AM 45.0358 -86.8733 307° West 221 254 20,000  Level Minneapolis Center
10:05AM 45.0711 -86.9397 310° West 221 254 20,000  Level Minneapolis Center
10:06AM 45.1081 -87.0033 311° West 216 249 20,000  Level Minneapolis Center
10:07AM 45.1450 -87.0642 306° West 216 249 20,000  Level Minneapolis Center
10:08AM 45.1778 -87.1281 309° West 216 249 20,000  Level Minneapolis Center
10:09AM 45.2147 -87.1919 307° West 216 249 20,000  Level Minneapolis Center
10:10AM 45.2497 -87.2589 311° West 216 249 20,000  Level Minneapolis Center
10:11AM 45.2864 -87.3200 308° West 216 249 20,000  Level Minneapolis Center
10:12AM 45.3211 -87.3842 308° West 211 243 20,000  Level Minneapolis Center
10:13AM 45.3558 -87.4483 308° West 211 243 20,000  Level Minneapolis Center
10:14AM 45.3906 -87.5128 310° West 211 243 20,000  Level Minneapolis Center
10:15AM 45.4294 -87.5797 305° West 211 243 20,000  Level Minneapolis Center
10:16AM 45.4597 -87.6417 310° West 211 243 20,000  Level Minneapolis Center
10:17AM 45.4942 -87.7006 308° West 200 230 20,000  Level Minneapolis Center
10:18AM 45.5264 -87.7594 308° West 195 224 20,000  Level Minneapolis Center
10:19AM 45.5606 -87.8214 308° West 195 224 20,000  Level Minneapolis Center
10:20AM 45.5928 -87.8806 309° West 189 217 20,000  Level Minneapolis Center
10:21AM 45.6225 -87.9339 311° West 189 217 20,000  Level Minneapolis Center
10:22AM 45.6586 -87.9928 308° West 189 217 20,000  Level Minneapolis Center
10:23AM 45.6908 -88.0522 310° West 189 217 20,000  Level Minneapolis Center
10:24AM 45.7225 -88.1056 305° West 189 217 20,000  Level Minneapolis Center
10:25AM 45.7547 -88.1711 308° West 189 217 20,000  Level Minneapolis Center
10:26AM 45.7844 -88.2250 309° West 189 217 20,000  Level Minneapolis Center
10:27AM 45.8183 -88.2844 306° West 189 217 20,000  Level Minneapolis Center
10:28AM 45.8481 -88.3442 308° West 189 217 20,000  Level Minneapolis Center
10:29AM 45.8800 -88.4039 307° West 189 217 20,000  Level Minneapolis Center
10:30AM 45.9119 -88.4639 309° West 189 217 20,000  Level Minneapolis Center
10:31AM 45.9436 -88.5208 306° West 189 217 20,000  Level Minneapolis Center
10:32AM 45.9753 -88.5836 311° West 189 217 20,000  Level Minneapolis Center
10:33AM 46.0092 -88.6406 305° West 189 217 20,000  Level Minneapolis Center
10:34AM 46.0386 -88.7008 309° West 189 217 20,000  Level Minneapolis Center
10:35AM 46.0725 -88.7608 307° West 189 217 20,000  Level Minneapolis Center
10:36AM 46.1042 -88.8211 307° West 189 217 20,000  Level Minneapolis Center
10:37AM 46.1358 -88.8814 308° West 189 217 20,000  Level Minneapolis Center
10:38AM 46.1717 -88.9475 308° West 189 217 20,000  Level Minneapolis Center
10:39AM 46.2031 -89.0047 306° West 190 219 20,000  Level Minneapolis Center
10:40AM 46.2303 -89.0597 305° West 184 212 20,000  Level Minneapolis Center
10:41AM 46.2642 -89.1292 309° West 189 217 20,000  Level Minneapolis Center
10:42AM 46.2978 -89.1897 309° West 194 223 20,000  Level Minneapolis Center
10:43AM 46.3267 -89.2417 305° West 188 216 20,000  Level Minneapolis Center
10:44AM 46.3583 -89.3083 312° West 188 216 20,000  Level Minneapolis Center
10:45AM 46.3939 -89.3658 297° West 196 226 20,000  Level Minneapolis Center
10:46AM 46.4169 -89.4306 307° West 191 220 20,000  Level Minneapolis Center
10:47AM 46.4483 -89.4914 305° West 191 220 20,000  Level Minneapolis Center
10:48AM 46.4797 -89.5556 307° West 191 220 20,000  Level Minneapolis Center
10:49AM 46.5108 -89.6167 306° West 191 220 20,000  Level Minneapolis Center
10:50AM 46.5419 -89.6781 309° West 191 220 20,000  Level Minneapolis Center
10:51AM 46.5753 -89.7392 305° West 191 220 20,000  Level Minneapolis Center
10:52AM 46.6067 -89.8036 304° West 191 220 20,000  Level Minneapolis Center
10:53AM 46.6356 -89.8650 308° West 191 220 20,000  Level Minneapolis Center
10:54AM 46.6686 -89.9264 307° West 191 220 20,000  Level Minneapolis Center
10:55AM 46.7019 -89.9908 304° West 191 220 20,000  Level Minneapolis Center
10:56AM 46.7308 -90.0528 306° West 191 220 20,000  Level Minneapolis Center
10:57AM 46.7619 -90.1144 305° West 191 220 20,000  Level Minneapolis Center
10:58AM 46.7928 -90.1794 306° West 191 220 20,000  Level Minneapolis Center
10:59AM 46.8239 -90.2411 305° West 191 220 20,000  Level Minneapolis Center
11:00AM 46.8547 -90.3061 307° West 191 220 20,000  Level Minneapolis Center
11:01AM 46.8856 -90.3653 306° West 191 220 20,000  Level Minneapolis Center
11:02AM 46.9164 -90.4272 309° West 191 220 20,000  Level Minneapolis Center
11:03AM 46.9492 -90.4861 306° West 191 220 20,000  Level Minneapolis Center
11:04AM 46.9842 -90.5575 309° West 191 220 20,000  Level Minneapolis Center
11:05AM 47.0169 -90.6167 302° West 191 220 20,000  Level Minneapolis Center
11:06AM 47.0458 -90.6850 307° West 191 220 20,000  Level Minneapolis Center
11:07AM 47.0783 -90.7475 303° West 191 220 20,000  Level Minneapolis Center
11:08AM 47.1069 -90.8131 309° West 191 220 20,000  Level Minneapolis Center
11:09AM 47.1417 -90.8756 305° West 191 220 20,000  Level Minneapolis Center
11:10AM 47.1725 -90.9414 306° West 191 220 20,000  Level Minneapolis Center
11:11AM 47.2028 -91.0039 308° West 191 220 20,000  Level Minneapolis Center
11:12AM 47.2397 -91.0728 306° West 191 220 20,000  Level Minneapolis Center
11:13AM 47.2703 -91.1356 308° West 191 220 20,000  Level Minneapolis Center
11:14AM 47.3047 -91.2014 303° West 191 220 20,000  Level Minneapolis Center
11:15AM 47.3353 -91.2706 309° West 191 220 20,000  Level Minneapolis Center
11:16AM 47.3697 -91.3336 302° West 191 220 20,000  Level Minneapolis Center
11:17AM 47.4003 -91.4061 306° West 191 220 20,000  Level Minneapolis Center
11:18AM 47.4325 -91.4722 307° West 191 220 20,000  Level Minneapolis Center
11:19AM 47.4669 -91.5386 305° West 196 226 20,000  Level Minneapolis Center
11:20AM 47.4994 -91.6081 304° West 196 226 20,000  Level Minneapolis Center
11:21AM 47.5317 -91.6778 304° West 201 231 20,000  Level Minneapolis Center
11:22AM 47.5639 -91.7475 303° West 206 237 20,000  Level Minneapolis Center
11:23AM 47.5942 -91.8172 307° West 206 237 20,000  Level Minneapolis Center
11:24AM 47.6283 -91.8839 302° West 206 237 20,000  Level Minneapolis Center
11:25AM 47.6583 -91.9539 304° West 206 237 20,000  Level Minneapolis Center
11:26AM 47.6906 -92.0239 302° West 206 237 20,000  Level Minneapolis Center
11:27AM 47.7206 -92.0942 306° West 206 237 20,000  Level Minneapolis Center
11:28AM 47.7503 -92.1550 305° West 206 237 20,000  Level Minneapolis Center
11:29AM 47.7822 -92.2222 308° West 206 237 20,000  Level Minneapolis Center
11:30AM 47.8164 -92.2864 305° West 206 237 20,000  Level Minneapolis Center
11:31AM 47.8481 -92.3536 305° West 206 237 20,000  Level Minneapolis Center
11:32AM 47.8800 -92.4211 304° West 206 237 20,000  Level Minneapolis Center
11:33AM 47.9119 -92.4917 307° West 206 237 20,000  Level Minneapolis Center
11:34AM 47.9458 -92.5592 302° West 206 237 20,000  Level Minneapolis Center
11:35AM 47.9753 -92.6300 304° West 206 237 20,000  Level Minneapolis Center
11:36AM 48.0092 -92.7039 305° West 206 237 20,000  Level Minneapolis Center
11:37AM 48.0408 -92.7719 305° West 206 237 20,000  Level Minneapolis Center
11:38AM 48.0744 -92.8428 304° West 206 237 20,000  Level Minneapolis Center
11:39AM 48.1061 -92.9139 302° West 206 237 20,000  Level Minneapolis Center
11:40AM 48.1375 -92.9883 287° West 206 237 20,000  Level Minneapolis Center
11:41AM 48.1500 -93.0500 314° West 210 242 20,000  Level Winnipeg Center
11:42AM 48.2047 -93.1339 302° West 206 237 20,000  Level Minneapolis Center
11:43AM 48.2361 -93.2086 303° West 206 237 20,000  Level Minneapolis Center
11:44AM 48.2675 -93.2803 304° West 206 237 20,000  Level Minneapolis Center
11:45AM 48.3008 -93.3550 303° West 206 237 20,000  Level Minneapolis Center
11:46AM 48.3319 -93.4267 306° West 206 237 20,000  Level Minneapolis Center
11:47AM 48.3675 -93.5017 303° West 206 237 20,000  Level Minneapolis Center
11:48AM 48.3986 -93.5736 304° West 211 243 20,000  Level Minneapolis Center
11:49AM 48.4317 -93.6486 304° West 211 243 20,000  Level Minneapolis Center
11:50AM 48.4650 -93.7239 305° West 216 249 20,000  Level Minneapolis Center
11:51AM 48.4981 -93.7961 301° West 216 249 20,000  Level Minneapolis Center
11:52AM 48.5289 -93.8747 303° West 216 249 20,000  Level Minneapolis Center
11:53AM 48.5619 -93.9503 306° West 216 249 20,000  Level Minneapolis Center
11:54AM 48.5969 -94.0228 302° West 216 249 20,000  Level Minneapolis Center
11:55AM 48.6300 -94.1017 303° West 216 249 20,000  Level Minneapolis Center
11:56AM 48.6628 -94.1775 301° West 216 249 20,000  Level Minneapolis Center
11:57AM 48.6933 -94.2533 306° West 216 249 20,000  Level Minneapolis Center
11:58AM 48.7283 -94.3261 300° West 216 249 20,000 -300 Level Minneapolis Center
11:59AM 48.7589 -94.4053 303° West 216 249 19,400 -720 Descending Minneapolis Center
12:00PM 48.7956 -94.4911 299° West 226 260 18,600 -780 Descending Minneapolis Center
12:01PM 48.8281 -94.5800 305° West 232 267 17,900 -840 Descending Minneapolis Center
12:02PM 48.8647 -94.6597 305° West 232 267 17,000 -720 Descending Minneapolis Center
12:03PM 48.9014 -94.7394 306° West 232 267 16,500 -540 Descending Minneapolis Center
12:04PM 48.9400 -94.8194 303° West 232 267 16,000 -300 Descending Minneapolis Center
12:05PM 48.9744 -94.8994 301° West 232 267 16,000  Level Minneapolis Center
12:06PM 49.0067 -94.9825 299° West 232 267 16,000  Level Minneapolis Center
12:08PM 49.0667 -95.1500 301° West 230 265 16,000  Level Winnipeg Center
12:09PM 49.1000 -95.2333 297° West 230 265 16,000  Level Winnipeg Center
12:10PM 49.1333 -95.3333 307° West 230 265 16,000  Level Winnipeg Center
12:11PM 49.1667 -95.4000 301° West 230 265 16,000  Level Winnipeg Center
12:12PM 49.2000 -95.4833 307° West 230 265 16,000  Level Winnipeg Center
12:13PM 49.2333 -95.5500 302° West 230 265 16,000  Level Winnipeg Center
12:14PM 49.2667 -95.6333 297° West 220 253 16,000 -60 Level Winnipeg Center
12:15PM 49.3000 -95.7333 302° West 220 253 15,900 -480 Descending Winnipeg Center
12:16PM 49.3333 -95.8167 308° West 230 265 15,100 -780 Descending Winnipeg Center
12:17PM 49.3667 -95.8833 297° West 230 265 14,400 -840 Descending Winnipeg Center
12:18PM 49.4000 -95.9833 302° West 240 276 13,500 -720 Descending Winnipeg Center
12:19PM 49.4333 -96.0667 297° West 240 276 13,000 -600 Descending Winnipeg Center
12:20PM 49.4667 -96.1667 313° West 240 276 12,300 -600 Descending Winnipeg Center
12:21PM 49.5167 -96.2500 308° West 240 276 11,800 -780 Descending Winnipeg Center
12:22PM 49.5500 -96.3167 297° West 240 276 10,800 -840 Descending Winnipeg Center
12:23PM 49.5833 -96.4167 302° West 240 276 10,200 -780 Descending Winnipeg Center
12:24PM 49.6167 -96.5000 313° West 240 276 9,300 -1,020 Descending Winnipeg Center
12:25PM 49.6667 -96.5833 297° West 240 276 8,200 -960 Descending Winnipeg Center
12:26PM 49.7000 -96.6833 302° West 250 288 7,400 -900 Descending Winnipeg Center
12:27PM 49.7333 -96.7667 297° West 240 276 6,500 -900 Descending Winnipeg Center
12:28PM 49.7667 -96.8667 319° Northwest 240 276 5,700 -900 Descending Winnipeg Center
12:29PM 49.8167 -96.9333 308° West 230 265 4,800 -960 Descending Winnipeg Center
12:30PM 49.8500 -97.0000 327° Northwest 220 253 3,800 -900 Descending Winnipeg Center
12:31PM 49.9000 -97.0500 327° Northwest 220 253 3,100 -420 Descending Winnipeg Center
12:32PM 49.9500 -97.1000 316° Northwest 200 230 3,000 -60 Descending Winnipeg Center
12:33PM 49.9833 -97.1500 270° West 180 207 3,000 -120 Level Winnipeg Center
12:34PM 49.9833 -97.2000 213° Southwest 160 184 2,800 -600 Descending Winnipeg Center
12:35PM 49.9500 -97.2333 180° South 120 138 1,900 -840 Descending Winnipeg Center
12:36PM 49.9167 -97.2333 180° South 100 115 1,200 -600 Descending Winnipeg Center
12:37PM 49.9000 -97.2333 180° South 100 115 800 -420 Descending Winnipeg Center